sensor_id;sensor_type;location;lat;lon;timestamp;P1;durP1;ratioP1;P2;durP2;ratioP2
16480;SDS011;44634;54.110;12.138;2023-01-29T00:01:28;28.17;;;13.70;;
16480;SDS011;44634;54.110;12.138;2023-01-29T00:03:56;35.73;;;17.80;;
16480;SDS011;44634;54.110;12.138;2023-01-29T00:06:26;29.03;;;13.07;;
16480;SDS011;44634;54.110;12.138;2023-01-29T00:08:54;32.83;;;16.10;;
16480;SDS011;44634;54.110;12.138;2023-01-29T00:11:22;33.53;;;17.23;;
16480;SDS011;44634;54.110;12.138;2023-01-29T00:13:50;32.83;;;15.87;;
16480;SDS011;44634;54.110;12.138;2023-01-29T00:16:18;33.17;;;16.87;;
16480;SDS011;44634;54.110;12.138;2023-01-29T00:18:46;34.47;;;16.20;;
16480;SDS011;44634;54.110;12.138;2023-01-29T00:21:14;33.07;;;16.37;;
16480;SDS011;44634;54.110;12.138;2023-01-29T00:23:44;33.67;;;17.00;;
16480;SDS011;44634;54.110;12.138;2023-01-29T00:26:13;31.60;;;17.00;;
16480;SDS011;44634;54.110;12.138;2023-01-29T00:28:41;33.80;;;15.40;;
16480;SDS011;44634;54.110;12.138;2023-01-29T00:31:10;30.67;;;15.47;;
16480;SDS011;44634;54.110;12.138;2023-01-29T00:33:38;28.03;;;13.83;;
16480;SDS011;44634;54.110;12.138;2023-01-29T00:36:08;29.03;;;14.63;;
16480;SDS011;44634;54.110;12.138;2023-01-29T00:38:37;37.47;;;15.70;;
16480;SDS011;44634;54.110;12.138;2023-01-29T00:41:07;31.13;;;16.47;;
16480;SDS011;44634;54.110;12.138;2023-01-29T00:43:53;28.93;;;14.10;;
16480;SDS011;44634;54.110;12.138;2023-01-29T00:46:39;24.20;;;12.70;;
16480;SDS011;44634;54.110;12.138;2023-01-29T00:49:07;23.90;;;12.60;;
16480;SDS011;44634;54.110;12.138;2023-01-29T00:51:35;21.43;;;11.10;;
16480;SDS011;44634;54.110;12.138;2023-01-29T00:54:05;24.43;;;12.93;;
16480;SDS011;44634;54.110;12.138;2023-01-29T00:56:35;20.87;;;11.90;;
16480;SDS011;44634;54.110;12.138;2023-01-29T00:59:03;21.80;;;12.53;;
16480;SDS011;44634;54.110;12.138;2023-01-29T01:01:31;22.00;;;12.70;;
16480;SDS011;44634;54.110;12.138;2023-01-29T01:04:16;25.30;;;12.77;;
16480;SDS011;44634;54.110;12.138;2023-01-29T01:06:44;24.77;;;12.67;;
16480;SDS011;44634;54.110;12.138;2023-01-29T01:09:11;22.47;;;12.77;;
16480;SDS011;44634;54.110;12.138;2023-01-29T01:11:58;25.33;;;13.60;;
16480;SDS011;44634;54.110;12.138;2023-01-29T01:14:26;22.90;;;12.63;;
16480;SDS011;44634;54.110;12.138;2023-01-29T01:16:53;25.83;;;14.27;;
16480;SDS011;44634;54.110;12.138;2023-01-29T01:19:21;22.47;;;13.23;;
16480;SDS011;44634;54.110;12.138;2023-01-29T01:21:49;24.67;;;13.47;;
16480;SDS011;44634;54.110;12.138;2023-01-29T01:24:16;25.97;;;13.20;;
16480;SDS011;44634;54.110;12.138;2023-01-29T01:26:45;24.57;;;12.83;;
16480;SDS011;44634;54.110;12.138;2023-01-29T01:29:14;25.87;;;12.67;;
16480;SDS011;44634;54.110;12.138;2023-01-29T01:31:42;24.27;;;13.37;;
16480;SDS011;44634;54.110;12.138;2023-01-29T01:34:10;23.77;;;14.07;;
16480;SDS011;44634;54.110;12.138;2023-01-29T01:36:38;32.60;;;16.10;;
16480;SDS011;44634;54.110;12.138;2023-01-29T01:39:06;27.03;;;13.50;;
16480;SDS011;44634;54.110;12.138;2023-01-29T01:41:34;29.20;;;13.90;;
16480;SDS011;44634;54.110;12.138;2023-01-29T01:44:02;28.40;;;14.73;;
16480;SDS011;44634;54.110;12.138;2023-01-29T01:46:33;27.03;;;10.53;;
16480;SDS011;44634;54.110;12.138;2023-01-29T01:49:04;24.10;;;13.97;;
16480;SDS011;44634;54.110;12.138;2023-01-29T01:51:38;22.50;;;12.47;;
16480;SDS011;44634;54.110;12.138;2023-01-29T01:54:10;28.10;;;13.03;;
16480;SDS011;44634;54.110;12.138;2023-01-29T01:56:40;19.77;;;11.17;;
16480;SDS011;44634;54.110;12.138;2023-01-29T01:59:16;24.10;;;13.07;;
16480;SDS011;44634;54.110;12.138;2023-01-29T02:01:47;24.87;;;13.53;;
16480;SDS011;44634;54.110;12.138;2023-01-29T02:04:18;28.07;;;15.37;;
16480;SDS011;44634;54.110;12.138;2023-01-29T02:07:07;21.13;;;12.50;;
16480;SDS011;44634;54.110;12.138;2023-01-29T02:09:57;27.40;;;15.00;;
16480;SDS011;44634;54.110;12.138;2023-01-29T02:12:28;31.77;;;16.40;;
16480;SDS011;44634;54.110;12.138;2023-01-29T02:14:56;24.90;;;14.13;;
16480;SDS011;44634;54.110;12.138;2023-01-29T02:17:25;26.87;;;14.87;;
16480;SDS011;44634;54.110;12.138;2023-01-29T02:19:55;27.53;;;13.80;;
16480;SDS011;44634;54.110;12.138;2023-01-29T02:22:37;27.40;;;14.17;;
16480;SDS011;44634;54.110;12.138;2023-01-29T02:25:22;23.03;;;12.63;;
16480;SDS011;44634;54.110;12.138;2023-01-29T02:28:14;25.37;;;12.57;;
16480;SDS011;44634;54.110;12.138;2023-01-29T02:30:48;18.87;;;10.20;;
16480;SDS011;44634;54.110;12.138;2023-01-29T02:33:20;15.87;;;8.80;;
16480;SDS011;44634;54.110;12.138;2023-01-29T02:35:58;20.63;;;12.17;;
16480;SDS011;44634;54.110;12.138;2023-01-29T02:38:37;23.07;;;11.13;;
16480;SDS011;44634;54.110;12.138;2023-01-29T02:41:12;17.50;;;8.87;;
16480;SDS011;44634;54.110;12.138;2023-01-29T02:43:45;21.40;;;9.77;;
16480;SDS011;44634;54.110;12.138;2023-01-29T02:46:15;17.20;;;8.97;;
16480;SDS011;44634;54.110;12.138;2023-01-29T02:48:52;17.10;;;8.60;;
16480;SDS011;44634;54.110;12.138;2023-01-29T02:51:23;24.10;;;9.67;;
16480;SDS011;44634;54.110;12.138;2023-01-29T02:53:58;15.97;;;10.07;;
16480;SDS011;44634;54.110;12.138;2023-01-29T02:56:30;13.60;;;7.67;;
16480;SDS011;44634;54.110;12.138;2023-01-29T02:59:06;18.83;;;8.53;;
16480;SDS011;44634;54.110;12.138;2023-01-29T03:01:39;15.97;;;8.60;;
16480;SDS011;44634;54.110;12.138;2023-01-29T03:04:14;15.67;;;8.23;;
16480;SDS011;44634;54.110;12.138;2023-01-29T03:06:47;18.57;;;8.57;;
16480;SDS011;44634;54.110;12.138;2023-01-29T03:09:21;7.17;;;4.20;;
16480;SDS011;44634;54.110;12.138;2023-01-29T03:11:53;16.17;;;8.23;;
16480;SDS011;44634;54.110;12.138;2023-01-29T03:14:28;15.43;;;6.03;;
16480;SDS011;44634;54.110;12.138;2023-01-29T03:17:28;17.40;;;9.50;;
16480;SDS011;44634;54.110;12.138;2023-01-29T03:20:00;24.97;;;9.80;;
16480;SDS011;44634;54.110;12.138;2023-01-29T03:22:29;20.93;;;9.80;;
16480;SDS011;44634;54.110;12.138;2023-01-29T03:24:58;18.00;;;9.67;;
16480;SDS011;44634;54.110;12.138;2023-01-29T03:27:46;20.47;;;10.00;;
16480;SDS011;44634;54.110;12.138;2023-01-29T03:30:39;22.87;;;9.73;;
16480;SDS011;44634;54.110;12.138;2023-01-29T03:33:30;22.70;;;9.13;;
16480;SDS011;44634;54.110;12.138;2023-01-29T03:36:03;15.40;;;9.10;;
16480;SDS011;44634;54.110;12.138;2023-01-29T03:38:35;15.83;;;8.17;;
16480;SDS011;44634;54.110;12.138;2023-01-29T03:41:03;15.93;;;7.63;;
16480;SDS011;44634;54.110;12.138;2023-01-29T03:43:35;16.37;;;9.63;;
16480;SDS011;44634;54.110;12.138;2023-01-29T03:46:14;17.30;;;7.93;;
16480;SDS011;44634;54.110;12.138;2023-01-29T03:48:49;18.43;;;7.67;;
16480;SDS011;44634;54.110;12.138;2023-01-29T03:51:24;11.67;;;6.90;;
16480;SDS011;44634;54.110;12.138;2023-01-29T03:53:56;10.10;;;5.97;;
16480;SDS011;44634;54.110;12.138;2023-01-29T03:56:33;14.13;;;6.40;;
16480;SDS011;44634;54.110;12.138;2023-01-29T03:59:14;12.70;;;7.23;;
16480;SDS011;44634;54.110;12.138;2023-01-29T04:01:55;13.93;;;7.33;;
16480;SDS011;44634;54.110;12.138;2023-01-29T04:04:26;17.63;;;8.27;;
16480;SDS011;44634;54.110;12.138;2023-01-29T04:06:59;6.23;;;3.67;;
16480;SDS011;44634;54.110;12.138;2023-01-29T04:09:36;11.67;;;6.87;;
16480;SDS011;44634;54.110;12.138;2023-01-29T04:12:09;11.30;;;7.10;;
16480;SDS011;44634;54.110;12.138;2023-01-29T04:14:41;14.60;;;6.73;;
16480;SDS011;44634;54.110;12.138;2023-01-29T04:17:13;11.17;;;7.23;;
16480;SDS011;44634;54.110;12.138;2023-01-29T04:19:45;14.30;;;8.10;;
16480;SDS011;44634;54.110;12.138;2023-01-29T04:22:14;15.37;;;7.60;;
16480;SDS011;44634;54.110;12.138;2023-01-29T04:24:46;14.77;;;8.63;;
16480;SDS011;44634;54.110;12.138;2023-01-29T04:27:22;8.43;;;6.20;;
16480;SDS011;44634;54.110;12.138;2023-01-29T04:29:56;16.63;;;7.23;;
16480;SDS011;44634;54.110;12.138;2023-01-29T04:32:34;7.77;;;5.93;;
16480;SDS011;44634;54.110;12.138;2023-01-29T04:35:16;15.43;;;8.13;;
16480;SDS011;44634;54.110;12.138;2023-01-29T04:37:55;13.73;;;7.90;;
16480;SDS011;44634;54.110;12.138;2023-01-29T04:40:35;13.53;;;6.67;;
16480;SDS011;44634;54.110;12.138;2023-01-29T04:43:15;14.87;;;8.77;;
16480;SDS011;44634;54.110;12.138;2023-01-29T04:45:55;12.70;;;8.23;;
16480;SDS011;44634;54.110;12.138;2023-01-29T04:48:39;9.77;;;5.97;;
16480;SDS011;44634;54.110;12.138;2023-01-29T04:51:16;12.17;;;7.50;;
16480;SDS011;44634;54.110;12.138;2023-01-29T04:53:49;16.80;;;9.37;;
16480;SDS011;44634;54.110;12.138;2023-01-29T04:56:25;16.30;;;8.93;;
16480;SDS011;44634;54.110;12.138;2023-01-29T04:58:58;17.57;;;9.63;;
16480;SDS011;44634;54.110;12.138;2023-01-29T05:01:30;17.83;;;9.30;;
16480;SDS011;44634;54.110;12.138;2023-01-29T05:04:02;16.23;;;9.30;;
16480;SDS011;44634;54.110;12.138;2023-01-29T05:06:34;11.90;;;8.03;;
16480;SDS011;44634;54.110;12.138;2023-01-29T05:09:04;15.33;;;7.87;;
16480;SDS011;44634;54.110;12.138;2023-01-29T05:11:32;18.43;;;8.10;;
16480;SDS011;44634;54.110;12.138;2023-01-29T05:14:03;16.27;;;9.20;;
16480;SDS011;44634;54.110;12.138;2023-01-29T05:16:36;14.50;;;8.83;;
16480;SDS011;44634;54.110;12.138;2023-01-29T05:19:11;15.90;;;8.67;;
16480;SDS011;44634;54.110;12.138;2023-01-29T05:21:41;15.07;;;8.73;;
16480;SDS011;44634;54.110;12.138;2023-01-29T05:24:12;11.77;;;6.17;;
16480;SDS011;44634;54.110;12.138;2023-01-29T05:26:42;12.93;;;6.90;;
16480;SDS011;44634;54.110;12.138;2023-01-29T05:29:28;17.77;;;10.13;;
16480;SDS011;44634;54.110;12.138;2023-01-29T05:31:56;18.97;;;8.37;;
16480;SDS011;44634;54.110;12.138;2023-01-29T05:34:25;15.37;;;8.13;;
16480;SDS011;44634;54.110;12.138;2023-01-29T05:36:53;20.00;;;8.60;;
16480;SDS011;44634;54.110;12.138;2023-01-29T05:39:21;16.67;;;9.23;;
16480;SDS011;44634;54.110;12.138;2023-01-29T05:41:50;14.60;;;8.27;;
16480;SDS011;44634;54.110;12.138;2023-01-29T05:44:17;14.10;;;8.17;;
16480;SDS011;44634;54.110;12.138;2023-01-29T05:46:45;14.60;;;8.27;;
16480;SDS011;44634;54.110;12.138;2023-01-29T05:49:13;16.73;;;9.53;;
16480;SDS011;44634;54.110;12.138;2023-01-29T05:51:44;17.17;;;9.37;;
16480;SDS011;44634;54.110;12.138;2023-01-29T05:54:12;11.40;;;7.33;;
16480;SDS011;44634;54.110;12.138;2023-01-29T05:56:39;23.70;;;10.00;;
16480;SDS011;44634;54.110;12.138;2023-01-29T05:59:07;15.87;;;7.97;;
16480;SDS011;44634;54.110;12.138;2023-01-29T06:01:35;14.17;;;8.93;;
16480;SDS011;44634;54.110;12.138;2023-01-29T06:04:03;16.23;;;8.47;;
16480;SDS011;44634;54.110;12.138;2023-01-29T06:06:31;11.30;;;6.87;;
16480;SDS011;44634;54.110;12.138;2023-01-29T06:09:00;16.03;;;8.70;;
16480;SDS011;44634;54.110;12.138;2023-01-29T06:11:28;12.13;;;7.53;;
16480;SDS011;44634;54.110;12.138;2023-01-29T06:13:56;14.57;;;8.70;;
16480;SDS011;44634;54.110;12.138;2023-01-29T06:16:24;15.50;;;9.17;;
16480;SDS011;44634;54.110;12.138;2023-01-29T06:18:52;14.03;;;9.60;;
16480;SDS011;44634;54.110;12.138;2023-01-29T06:21:19;16.03;;;9.10;;
16480;SDS011;44634;54.110;12.138;2023-01-29T06:23:47;18.17;;;9.07;;
16480;SDS011;44634;54.110;12.138;2023-01-29T06:26:16;15.07;;;8.47;;
16480;SDS011;44634;54.110;12.138;2023-01-29T06:28:46;12.53;;;6.93;;
16480;SDS011;44634;54.110;12.138;2023-01-29T06:31:14;13.17;;;7.73;;
16480;SDS011;44634;54.110;12.138;2023-01-29T06:34:03;15.60;;;8.20;;
16480;SDS011;44634;54.110;12.138;2023-01-29T06:36:31;15.93;;;9.13;;
16480;SDS011;44634;54.110;12.138;2023-01-29T06:38:59;12.13;;;8.17;;
16480;SDS011;44634;54.110;12.138;2023-01-29T06:41:28;10.37;;;7.63;;
16480;SDS011;44634;54.110;12.138;2023-01-29T06:43:56;10.50;;;7.27;;
16480;SDS011;44634;54.110;12.138;2023-01-29T06:46:23;11.87;;;6.43;;
16480;SDS011;44634;54.110;12.138;2023-01-29T06:48:51;16.53;;;8.30;;
16480;SDS011;44634;54.110;12.138;2023-01-29T06:51:19;7.80;;;5.90;;
16480;SDS011;44634;54.110;12.138;2023-01-29T06:53:48;13.23;;;6.83;;
16480;SDS011;44634;54.110;12.138;2023-01-29T06:56:15;10.97;;;8.00;;
16480;SDS011;44634;54.110;12.138;2023-01-29T06:58:44;12.17;;;7.13;;
16480;SDS011;44634;54.110;12.138;2023-01-29T07:01:12;10.37;;;7.20;;
16480;SDS011;44634;54.110;12.138;2023-01-29T07:03:59;11.53;;;7.23;;
16480;SDS011;44634;54.110;12.138;2023-01-29T07:06:28;11.83;;;7.07;;
16480;SDS011;44634;54.110;12.138;2023-01-29T07:08:56;13.93;;;8.27;;
16480;SDS011;44634;54.110;12.138;2023-01-29T07:11:24;10.73;;;6.60;;
16480;SDS011;44634;54.110;12.138;2023-01-29T07:13:53;9.13;;;6.00;;
16480;SDS011;44634;54.110;12.138;2023-01-29T07:16:20;11.13;;;7.47;;
16480;SDS011;44634;54.110;12.138;2023-01-29T07:18:48;10.73;;;6.77;;
16480;SDS011;44634;54.110;12.138;2023-01-29T07:21:16;11.37;;;6.73;;
16480;SDS011;44634;54.110;12.138;2023-01-29T07:23:44;11.97;;;7.77;;
16480;SDS011;44634;54.110;12.138;2023-01-29T07:26:11;8.73;;;6.33;;
16480;SDS011;44634;54.110;12.138;2023-01-29T07:28:39;9.57;;;6.43;;
16480;SDS011;44634;54.110;12.138;2023-01-29T07:31:08;11.47;;;8.07;;
16480;SDS011;44634;54.110;12.138;2023-01-29T07:33:39;10.23;;;6.53;;
16480;SDS011;44634;54.110;12.138;2023-01-29T07:36:09;10.80;;;7.50;;
16480;SDS011;44634;54.110;12.138;2023-01-29T07:38:37;10.17;;;6.07;;
16480;SDS011;44634;54.110;12.138;2023-01-29T07:41:05;11.47;;;7.53;;
16480;SDS011;44634;54.110;12.138;2023-01-29T07:43:33;13.50;;;7.40;;
16480;SDS011;44634;54.110;12.138;2023-01-29T07:46:02;9.80;;;7.30;;
16480;SDS011;44634;54.110;12.138;2023-01-29T07:48:31;12.73;;;7.23;;
16480;SDS011;44634;54.110;12.138;2023-01-29T07:50:59;7.60;;;5.73;;
16480;SDS011;44634;54.110;12.138;2023-01-29T07:53:27;8.80;;;5.73;;
16480;SDS011;44634;54.110;12.138;2023-01-29T07:55:56;12.47;;;7.93;;
16480;SDS011;44634;54.110;12.138;2023-01-29T07:58:23;9.27;;;6.97;;
16480;SDS011;44634;54.110;12.138;2023-01-29T08:00:51;15.77;;;8.13;;
16480;SDS011;44634;54.110;12.138;2023-01-29T08:03:19;11.90;;;5.83;;
16480;SDS011;44634;54.110;12.138;2023-01-29T08:05:48;11.00;;;7.30;;
16480;SDS011;44634;54.110;12.138;2023-01-29T08:08:17;12.13;;;6.13;;
16480;SDS011;44634;54.110;12.138;2023-01-29T08:10:45;12.00;;;7.17;;
16480;SDS011;44634;54.110;12.138;2023-01-29T08:13:13;11.67;;;8.03;;
16480;SDS011;44634;54.110;12.138;2023-01-29T08:15:41;13.47;;;7.60;;
16480;SDS011;44634;54.110;12.138;2023-01-29T08:18:10;11.73;;;8.00;;
16480;SDS011;44634;54.110;12.138;2023-01-29T08:20:38;14.50;;;8.50;;
16480;SDS011;44634;54.110;12.138;2023-01-29T08:23:12;14.43;;;7.63;;
16480;SDS011;44634;54.110;12.138;2023-01-29T08:25:41;11.27;;;7.67;;
16480;SDS011;44634;54.110;12.138;2023-01-29T08:28:09;16.87;;;8.67;;
16480;SDS011;44634;54.110;12.138;2023-01-29T08:30:37;14.73;;;9.33;;
16480;SDS011;44634;54.110;12.138;2023-01-29T08:33:05;10.40;;;6.60;;
16480;SDS011;44634;54.110;12.138;2023-01-29T08:35:33;15.57;;;6.87;;
16480;SDS011;44634;54.110;12.138;2023-01-29T08:38:01;8.90;;;6.93;;
16480;SDS011;44634;54.110;12.138;2023-01-29T08:40:31;10.37;;;7.20;;
16480;SDS011;44634;54.110;12.138;2023-01-29T08:43:00;9.97;;;6.90;;
16480;SDS011;44634;54.110;12.138;2023-01-29T08:45:33;8.60;;;5.93;;
16480;SDS011;44634;54.110;12.138;2023-01-29T08:48:02;9.43;;;7.07;;
16480;SDS011;44634;54.110;12.138;2023-01-29T08:50:32;9.67;;;6.90;;
16480;SDS011;44634;54.110;12.138;2023-01-29T08:53:01;10.03;;;6.60;;
16480;SDS011;44634;54.110;12.138;2023-01-29T08:55:31;8.10;;;6.27;;
16480;SDS011;44634;54.110;12.138;2023-01-29T08:57:59;7.43;;;6.57;;
16480;SDS011;44634;54.110;12.138;2023-01-29T09:00:26;9.43;;;6.73;;
16480;SDS011;44634;54.110;12.138;2023-01-29T09:02:54;10.47;;;7.13;;
16480;SDS011;44634;54.110;12.138;2023-01-29T09:05:22;11.03;;;6.77;;
16480;SDS011;44634;54.110;12.138;2023-01-29T09:07:50;9.23;;;6.43;;
16480;SDS011;44634;54.110;12.138;2023-01-29T09:10:19;9.80;;;7.27;;
16480;SDS011;44634;54.110;12.138;2023-01-29T09:12:48;9.10;;;6.67;;
16480;SDS011;44634;54.110;12.138;2023-01-29T09:15:16;8.57;;;5.67;;
16480;SDS011;44634;54.110;12.138;2023-01-29T09:17:44;5.77;;;4.90;;
16480;SDS011;44634;54.110;12.138;2023-01-29T09:20:14;7.77;;;6.13;;
16480;SDS011;44634;54.110;12.138;2023-01-29T09:22:43;7.37;;;5.43;;
16480;SDS011;44634;54.110;12.138;2023-01-29T09:25:11;8.87;;;4.57;;
16480;SDS011;44634;54.110;12.138;2023-01-29T09:27:40;8.30;;;5.53;;
16480;SDS011;44634;54.110;12.138;2023-01-29T09:30:09;8.40;;;5.23;;
16480;SDS011;44634;54.110;12.138;2023-01-29T09:32:38;5.43;;;4.20;;
16480;SDS011;44634;54.110;12.138;2023-01-29T09:35:21;5.57;;;4.23;;
16480;SDS011;44634;54.110;12.138;2023-01-29T09:37:50;5.43;;;4.60;;
16480;SDS011;44634;54.110;12.138;2023-01-29T09:40:21;5.27;;;3.97;;
16480;SDS011;44634;54.110;12.138;2023-01-29T09:42:54;7.17;;;4.83;;
16480;SDS011;44634;54.110;12.138;2023-01-29T09:45:28;6.03;;;3.90;;
16480;SDS011;44634;54.110;12.138;2023-01-29T09:47:58;5.50;;;4.40;;
16480;SDS011;44634;54.110;12.138;2023-01-29T09:50:29;4.80;;;4.23;;
16480;SDS011;44634;54.110;12.138;2023-01-29T09:53:00;6.03;;;4.40;;
16480;SDS011;44634;54.110;12.138;2023-01-29T09:55:32;5.77;;;3.57;;
16480;SDS011;44634;54.110;12.138;2023-01-29T09:58:04;4.93;;;4.30;;
16480;SDS011;44634;54.110;12.138;2023-01-29T10:00:45;4.57;;;3.27;;
16480;SDS011;44634;54.110;12.138;2023-01-29T10:03:23;6.13;;;3.30;;
16480;SDS011;44634;54.110;12.138;2023-01-29T10:06:18;8.20;;;5.00;;
16480;SDS011;44634;54.110;12.138;2023-01-29T10:09:04;5.50;;;4.53;;
16480;SDS011;44634;54.110;12.138;2023-01-29T10:11:56;4.07;;;3.67;;
16480;SDS011;44634;54.110;12.138;2023-01-29T10:14:38;4.77;;;3.83;;
16480;SDS011;44634;54.110;12.138;2023-01-29T10:17:23;4.33;;;3.47;;
16480;SDS011;44634;54.110;12.138;2023-01-29T10:20:12;5.60;;;4.43;;
16480;SDS011;44634;54.110;12.138;2023-01-29T10:22:55;5.50;;;4.40;;
16480;SDS011;44634;54.110;12.138;2023-01-29T10:25:43;5.80;;;4.80;;
16480;SDS011;44634;54.110;12.138;2023-01-29T10:28:14;10.47;;;6.23;;
16480;SDS011;44634;54.110;12.138;2023-01-29T10:30:46;9.03;;;5.53;;
16480;SDS011;44634;54.110;12.138;2023-01-29T10:33:19;5.73;;;4.40;;
16480;SDS011;44634;54.110;12.138;2023-01-29T10:35:52;5.23;;;4.53;;
16480;SDS011;44634;54.110;12.138;2023-01-29T10:38:27;5.17;;;3.43;;
16480;SDS011;44634;54.110;12.138;2023-01-29T10:41:10;7.80;;;5.10;;
16480;SDS011;44634;54.110;12.138;2023-01-29T10:43:53;5.97;;;4.30;;
16480;SDS011;44634;54.110;12.138;2023-01-29T10:46:36;7.53;;;5.50;;
16480;SDS011;44634;54.110;12.138;2023-01-29T10:49:23;4.47;;;3.07;;
16480;SDS011;44634;54.110;12.138;2023-01-29T10:52:07;6.33;;;4.70;;
16480;SDS011;44634;54.110;12.138;2023-01-29T10:54:54;6.80;;;4.53;;
16480;SDS011;44634;54.110;12.138;2023-01-29T10:57:35;6.87;;;3.63;;
16480;SDS011;44634;54.110;12.138;2023-01-29T11:00:15;5.77;;;3.93;;
16480;SDS011;44634;54.110;12.138;2023-01-29T11:02:47;8.63;;;3.27;;
16480;SDS011;44634;54.110;12.138;2023-01-29T11:05:22;7.57;;;5.07;;
16480;SDS011;44634;54.110;12.138;2023-01-29T11:07:57;8.77;;;5.97;;
16480;SDS011;44634;54.110;12.138;2023-01-29T11:10:29;4.27;;;3.40;;
16480;SDS011;44634;54.110;12.138;2023-01-29T11:13:03;7.47;;;5.40;;
16480;SDS011;44634;54.110;12.138;2023-01-29T11:15:32;8.93;;;6.10;;
16480;SDS011;44634;54.110;12.138;2023-01-29T11:18:04;6.83;;;5.00;;
16480;SDS011;44634;54.110;12.138;2023-01-29T11:20:37;5.07;;;3.70;;
16480;SDS011;44634;54.110;12.138;2023-01-29T11:23:05;8.13;;;5.17;;
16480;SDS011;44634;54.110;12.138;2023-01-29T11:25:33;8.17;;;5.70;;
16480;SDS011;44634;54.110;12.138;2023-01-29T11:28:01;10.77;;;6.40;;
16480;SDS011;44634;54.110;12.138;2023-01-29T11:30:31;9.13;;;5.63;;
16480;SDS011;44634;54.110;12.138;2023-01-29T11:33:07;8.50;;;5.87;;
16480;SDS011;44634;54.110;12.138;2023-01-29T11:35:46;9.13;;;6.03;;
16480;SDS011;44634;54.110;12.138;2023-01-29T11:38:18;8.10;;;5.53;;
16480;SDS011;44634;54.110;12.138;2023-01-29T11:40:48;6.63;;;5.90;;
16480;SDS011;44634;54.110;12.138;2023-01-29T11:43:17;11.03;;;6.20;;
16480;SDS011;44634;54.110;12.138;2023-01-29T11:45:47;7.20;;;5.43;;
16480;SDS011;44634;54.110;12.138;2023-01-29T11:48:17;8.17;;;6.13;;
16480;SDS011;44634;54.110;12.138;2023-01-29T11:50:51;9.00;;;6.03;;
16480;SDS011;44634;54.110;12.138;2023-01-29T11:53:33;10.43;;;6.97;;
16480;SDS011;44634;54.110;12.138;2023-01-29T11:56:05;9.53;;;6.93;;
16480;SDS011;44634;54.110;12.138;2023-01-29T11:58:45;8.43;;;5.67;;
16480;SDS011;44634;54.110;12.138;2023-01-29T12:01:14;10.00;;;6.47;;
16480;SDS011;44634;54.110;12.138;2023-01-29T12:03:44;9.90;;;6.47;;
16480;SDS011;44634;54.110;12.138;2023-01-29T12:06:19;10.57;;;7.13;;
16480;SDS011;44634;54.110;12.138;2023-01-29T12:08:52;6.17;;;5.10;;
16480;SDS011;44634;54.110;12.138;2023-01-29T12:11:23;10.83;;;5.23;;
16480;SDS011;44634;54.110;12.138;2023-01-29T12:13:54;10.50;;;6.67;;
16480;SDS011;44634;54.110;12.138;2023-01-29T12:16:24;6.97;;;4.73;;
16480;SDS011;44634;54.110;12.138;2023-01-29T12:18:59;9.57;;;6.37;;
16480;SDS011;44634;54.110;12.138;2023-01-29T12:21:37;10.93;;;7.50;;
16480;SDS011;44634;54.110;12.138;2023-01-29T12:24:16;14.40;;;9.30;;
16480;SDS011;44634;54.110;12.138;2023-01-29T12:26:57;13.20;;;7.67;;
16480;SDS011;44634;54.110;12.138;2023-01-29T12:29:33;9.37;;;5.83;;
16480;SDS011;44634;54.110;12.138;2023-01-29T12:32:10;11.57;;;7.33;;
16480;SDS011;44634;54.110;12.138;2023-01-29T12:34:47;15.17;;;9.07;;
16480;SDS011;44634;54.110;12.138;2023-01-29T12:37:20;12.63;;;9.10;;
16480;SDS011;44634;54.110;12.138;2023-01-29T12:39:54;13.70;;;8.13;;
16480;SDS011;44634;54.110;12.138;2023-01-29T12:42:22;15.00;;;8.97;;
16480;SDS011;44634;54.110;12.138;2023-01-29T12:44:51;12.27;;;7.23;;
16480;SDS011;44634;54.110;12.138;2023-01-29T12:47:24;14.63;;;9.87;;
16480;SDS011;44634;54.110;12.138;2023-01-29T12:49:59;16.57;;;9.67;;
16480;SDS011;44634;54.110;12.138;2023-01-29T12:52:35;10.60;;;7.10;;
16480;SDS011;44634;54.110;12.138;2023-01-29T12:55:07;15.93;;;9.80;;
16480;SDS011;44634;54.110;12.138;2023-01-29T12:57:41;17.07;;;10.83;;
16480;SDS011;44634;54.110;12.138;2023-01-29T13:00:14;16.60;;;10.30;;
16480;SDS011;44634;54.110;12.138;2023-01-29T13:02:48;12.33;;;8.37;;
16480;SDS011;44634;54.110;12.138;2023-01-29T13:05:22;19.77;;;11.33;;
16480;SDS011;44634;54.110;12.138;2023-01-29T13:07:55;14.00;;;9.70;;
16480;SDS011;44634;54.110;12.138;2023-01-29T13:10:28;11.20;;;6.90;;
16480;SDS011;44634;54.110;12.138;2023-01-29T13:13:01;15.57;;;7.53;;
16480;SDS011;44634;54.110;12.138;2023-01-29T13:15:37;18.57;;;11.03;;
16480;SDS011;44634;54.110;12.138;2023-01-29T13:18:20;15.40;;;9.97;;
16480;SDS011;44634;54.110;12.138;2023-01-29T13:20:58;13.77;;;9.00;;
16480;SDS011;44634;54.110;12.138;2023-01-29T13:23:29;13.17;;;9.07;;
16480;SDS011;44634;54.110;12.138;2023-01-29T13:26:00;20.53;;;11.17;;
16480;SDS011;44634;54.110;12.138;2023-01-29T13:28:28;15.87;;;9.43;;
16480;SDS011;44634;54.110;12.138;2023-01-29T13:31:10;14.53;;;9.37;;
16480;SDS011;44634;54.110;12.138;2023-01-29T13:33:54;19.40;;;10.73;;
16480;SDS011;44634;54.110;12.138;2023-01-29T13:36:26;18.07;;;9.43;;
16480;SDS011;44634;54.110;12.138;2023-01-29T13:39:01;13.53;;;8.70;;
16480;SDS011;44634;54.110;12.138;2023-01-29T13:41:32;19.03;;;10.97;;
16480;SDS011;44634;54.110;12.138;2023-01-29T13:44:02;18.47;;;10.23;;
16480;SDS011;44634;54.110;12.138;2023-01-29T13:46:37;17.13;;;10.80;;
16480;SDS011;44634;54.110;12.138;2023-01-29T13:49:16;13.17;;;8.63;;
16480;SDS011;44634;54.110;12.138;2023-01-29T13:51:53;13.70;;;8.57;;
16480;SDS011;44634;54.110;12.138;2023-01-29T13:54:23;17.03;;;10.13;;
16480;SDS011;44634;54.110;12.138;2023-01-29T13:56:56;15.37;;;9.93;;
16480;SDS011;44634;54.110;12.138;2023-01-29T14:02:19;18.53;;;10.80;;
16480;SDS011;44634;54.110;12.138;2023-01-29T14:05:31;16.33;;;7.63;;
16480;SDS011;44634;54.110;12.138;2023-01-29T14:08:04;14.10;;;7.40;;
16480;SDS011;44634;54.110;12.138;2023-01-29T14:10:33;15.97;;;8.30;;
16480;SDS011;44634;54.110;12.138;2023-01-29T14:13:24;17.37;;;9.20;;
16480;SDS011;44634;54.110;12.138;2023-01-29T14:19:00;14.20;;;9.27;;
16480;SDS011;44634;54.110;12.138;2023-01-29T14:21:31;16.37;;;10.97;;
16480;SDS011;44634;54.110;12.138;2023-01-29T14:24:07;16.30;;;10.73;;
16480;SDS011;44634;54.110;12.138;2023-01-29T14:26:41;17.27;;;10.43;;
16480;SDS011;44634;54.110;12.138;2023-01-29T14:29:17;13.97;;;7.80;;
16480;SDS011;44634;54.110;12.138;2023-01-29T14:32:02;16.10;;;10.20;;
16480;SDS011;44634;54.110;12.138;2023-01-29T14:34:40;15.77;;;9.60;;
16480;SDS011;44634;54.110;12.138;2023-01-29T14:37:18;19.23;;;11.47;;
16480;SDS011;44634;54.110;12.138;2023-01-29T14:39:51;11.20;;;7.53;;
16480;SDS011;44634;54.110;12.138;2023-01-29T14:42:21;20.50;;;11.87;;
16480;SDS011;44634;54.110;12.138;2023-01-29T14:44:55;19.33;;;10.17;;
16480;SDS011;44634;54.110;12.138;2023-01-29T14:53:55;15.17;;;9.03;;
16480;SDS011;44634;54.110;12.138;2023-01-29T14:56:28;17.20;;;10.97;;
16480;SDS011;44634;54.110;12.138;2023-01-29T14:59:10;15.47;;;9.73;;
16480;SDS011;44634;54.110;12.138;2023-01-29T15:01:44;18.30;;;9.43;;
16480;SDS011;44634;54.110;12.138;2023-01-29T15:04:14;20.00;;;11.87;;
16480;SDS011;44634;54.110;12.138;2023-01-29T15:06:49;21.37;;;12.93;;